PWSweather.com
Personal Weather Stations
Station Observations
LEONMETEO
LeonES 24008

LeonES 24008

Lat: 42.6055559, Lon: -5.5752249

Elevation: 2690

Station Type: La Crosse WS3600

Latest ConditionsUpdated 1:21:41 PM GMT+01:01 Thursday, Oct 23, 2014
Currently Today's Max Today's Min Today's Average
Temperature 66.2°F19.0°C 66.2°F19.0°C 46.0°F7.8°C 50.2°F10.1°C
Dew Point 52.3°F11.3°C 52.3°F11.3°C 37.2°F2.9°C 40.7°F4.8°C
Winds - N16091.8 kmh N Calm Calm - Calm Calm
Wind Gusts -- -- - -
Humidity 61% 73% 60% 70%
Pressure 30.04 in1017.3 mb 30.13 in1020.3 mb 30.04 in1017.3 mb -
Hour Temp Dew Point Humidity Winds Wind Gusts Pressure Precip Precip Rate Daily Precip Total
01:21 PM 66.2°F19.0°C 52.3°F11.3°C 61% - N16091.8 kmh N -- 30.04 in1017.3 mb 0.00 in0.0 mm 0.00 in/hr0.0 mm/hr 0.00 in0.0 mm
01:16 PM 65.8°F18.8°C 51.6°F10.9°C 60% - N16091.8 kmh N -- 30.04 in1017.3 mb 0.00 in0.0 mm 0.00 in/hr0.0 mm/hr 0.00 in0.0 mm
01:11 PM 65.4°F18.6°C 51.6°F10.9°C 60% - N16091.8 kmh N -- 30.04 in1017.3 mb 0.00 in0.0 mm 0.00 in/hr0.0 mm/hr 0.00 in0.0 mm
01:06 PM 65.1°F18.4°C 51.3°F10.7°C 61% - N16091.8 kmh N -- 30.05 in1017.6 mb 0.00 in0.0 mm 0.00 in/hr0.0 mm/hr 0.00 in0.0 mm
01:01 PM 64.5°F18.1°C 50.7°F10.4°C 61% - N16091.8 kmh N -- 30.05 in1017.6 mb 0.00 in0.0 mm 0.00 in/hr0.0 mm/hr 0.00 in0.0 mm
12:56 PM 64.0°F17.8°C 50.2°F10.1°C 61% - N16091.8 kmh N -- 30.05 in1017.6 mb 0.00 in0.0 mm 0.00 in/hr0.0 mm/hr 0.00 in0.0 mm
12:51 PM 63.3°F17.4°C 49.6°F9.8°C 61% - N16091.8 kmh N -- 30.05 in1017.6 mb 0.00 in0.0 mm 0.00 in/hr0.0 mm/hr 0.00 in0.0 mm
12:46 PM 62.7°F17.1°C 49.1°F9.5°C 61% - N16091.8 kmh N -- 30.05 in1017.6 mb 0.00 in0.0 mm 0.00 in/hr0.0 mm/hr 0.00 in0.0 mm
12:41 PM 62.2°F16.8°C 49.0°F9.4°C 62% - N16091.8 kmh N -- 30.06 in1017.9 mb 0.00 in0.0 mm 0.00 in/hr0.0 mm/hr 0.00 in0.0 mm
12:36 PM 61.7°F16.5°C 48.5°F9.2°C 62% - N16091.8 kmh N -- 30.06 in1017.9 mb 0.00 in0.0 mm 0.00 in/hr0.0 mm/hr 0.00 in0.0 mm
12:31 PM 61.3°F16.3°C 48.2°F9.0°C 62% - N16091.8 kmh N -- 30.07 in1018.3 mb 0.00 in0.0 mm 0.00 in/hr0.0 mm/hr 0.00 in0.0 mm
12:26 PM 60.8°F16.0°C 47.7°F8.7°C 62% - N16091.8 kmh N -- 30.07 in1018.3 mb 0.00 in0.0 mm 0.00 in/hr0.0 mm/hr 0.00 in0.0 mm
12:21 PM 60.0°F15.6°C 47.0°F8.3°C 62% - N16091.8 kmh N -- 30.07 in1018.3 mb 0.00 in0.0 mm 0.00 in/hr0.0 mm/hr 0.00 in0.0 mm
12:16 PM 59.7°F15.4°C 46.6°F8.1°C 62% - N16091.8 kmh N -- 30.07 in1018.3 mb 0.00 in0.0 mm 0.00 in/hr0.0 mm/hr 0.00 in0.0 mm
12:11 PM 59.1°F15.1°C 46.1°F7.8°C 62% - N16091.8 kmh N -- 30.07 in1018.3 mb 0.00 in0.0 mm 0.00 in/hr0.0 mm/hr 0.00 in0.0 mm
12:06 PM 58.8°F14.9°C 46.2°F7.9°C 63% - N16091.8 kmh N -- 30.07 in1018.3 mb 0.00 in0.0 mm 0.00 in/hr0.0 mm/hr 0.00 in0.0 mm
12:01 PM 58.4°F14.7°C 45.8°F7.7°C 63% - N16091.8 kmh N -- 30.07 in1018.3 mb 0.00 in0.0 mm 0.00 in/hr0.0 mm/hr 0.00 in0.0 mm
11:56 AM 57.9°F14.4°C 45.3°F7.4°C 63% - N16091.8 kmh N -- 30.07 in1018.3 mb 0.00 in0.0 mm 0.00 in/hr0.0 mm/hr 0.00 in0.0 mm
11:51 AM 57.5°F14.2°C 45.0°F7.2°C 63% - N16091.8 kmh N -- 30.07 in1018.3 mb 0.00 in0.0 mm 0.00 in/hr0.0 mm/hr 0.00 in0.0 mm
11:46 AM 57.3°F14.1°C 44.8°F7.1°C 63% - N16091.8 kmh N -- 30.07 in1018.3 mb 0.00 in0.0 mm 0.00 in/hr0.0 mm/hr 0.00 in0.0 mm
11:41 AM 57.0°F13.9°C 44.9°F7.2°C 64% - N16091.8 kmh N -- 30.08 in1018.6 mb 0.00 in0.0 mm 0.00 in/hr0.0 mm/hr 0.00 in0.0 mm
11:35 AM 56.6°F13.7°C 44.5°F6.9°C 64% - N16091.8 kmh N -- 30.08 in1018.6 mb 0.00 in0.0 mm 0.00 in/hr0.0 mm/hr 0.00 in0.0 mm
11:30 AM 56.4°F13.6°C 44.8°F7.1°C 65% - N16091.8 kmh N -- 30.08 in1018.6 mb 0.00 in0.0 mm 0.00 in/hr0.0 mm/hr 0.00 in0.0 mm
11:26 AM 56.3°F13.5°C 44.6°F7.0°C 65% - N16091.8 kmh N -- 30.08 in1018.6 mb 0.00 in0.0 mm 0.00 in/hr0.0 mm/hr 0.00 in0.0 mm
11:21 AM 55.9°F13.3°C 44.7°F7.1°C 66% - N16091.8 kmh N -- 30.08 in1018.6 mb 0.00 in0.0 mm 0.00 in/hr0.0 mm/hr 0.00 in0.0 mm
11:16 AM 55.5°F13.1°C 44.3°F6.8°C 66% - N16091.8 kmh N -- 30.08 in1018.6 mb 0.00 in0.0 mm 0.00 in/hr0.0 mm/hr 0.00 in0.0 mm
11:10 AM 55.2°F12.9°C 44.0°F6.7°C 66% - N16091.8 kmh N -- 30.08 in1018.6 mb 0.00 in0.0 mm 0.00 in/hr0.0 mm/hr 0.00 in0.0 mm
11:06 AM 55.0°F12.8°C 44.2°F6.8°C 67% - N16091.8 kmh N -- 30.09 in1019.0 mb 0.00 in0.0 mm 0.00 in/hr0.0 mm/hr 0.00 in0.0 mm
11:00 AM 54.5°F12.5°C 43.7°F6.5°C 67% - N16091.8 kmh N -- 30.09 in1019.0 mb 0.00 in0.0 mm 0.00 in/hr0.0 mm/hr 0.00 in0.0 mm
10:55 AM 54.1°F12.3°C 43.7°F6.5°C 67% - N16091.8 kmh N -- 30.09 in1019.0 mb 0.00 in0.0 mm 0.00 in/hr0.0 mm/hr 0.00 in0.0 mm
10:50 AM 53.7°F12.1°C 43.4°F6.3°C 68% - N16091.8 kmh N -- 30.09 in1019.0 mb 0.00 in0.0 mm 0.00 in/hr0.0 mm/hr 0.00 in0.0 mm
10:45 AM 53.4°F11.9°C 43.1°F6.2°C 68% - N16091.8 kmh N -- 30.09 in1019.0 mb 0.00 in0.0 mm 0.00 in/hr0.0 mm/hr 0.00 in0.0 mm
10:40 AM 53.2°F11.8°C 42.9°F6.1°C 68% - N16091.8 kmh N -- 30.09 in1019.0 mb 0.00 in0.0 mm 0.00 in/hr0.0 mm/hr 0.00 in0.0 mm
10:35 AM 52.8°F11.6°C 43.0°F6.1°C 69% - N16091.8 kmh N -- 30.09 in1019.0 mb 0.00 in0.0 mm 0.00 in/hr0.0 mm/hr 0.00 in0.0 mm
10:30 AM 52.5°F11.4°C 42.6°F5.9°C 69% - N16091.8 kmh N -- 30.09 in1019.0 mb 0.00 in0.0 mm 0.00 in/hr0.0 mm/hr 0.00 in0.0 mm
10:25 AM 52.3°F11.3°C 42.5°F5.8°C 69% - N16091.8 kmh N -- 30.09 in1019.0 mb 0.00 in0.0 mm 0.00 in/hr0.0 mm/hr 0.00 in0.0 mm
10:20 AM 52.1°F11.2°C 42.3°F5.7°C 69% - N16091.8 kmh N -- 30.09 in1019.0 mb 0.00 in0.0 mm 0.00 in/hr0.0 mm/hr 0.00 in0.0 mm
10:15 AM 51.6°F10.9°C 42.2°F5.7°C 70% - N16091.8 kmh N -- 30.09 in1019.0 mb 0.00 in0.0 mm 0.00 in/hr0.0 mm/hr 0.00 in0.0 mm
10:10 AM 51.4°F10.8°C 42.0°F5.6°C 70% - N16091.8 kmh N -- 30.09 in1019.0 mb 0.00 in0.0 mm 0.00 in/hr0.0 mm/hr 0.00 in0.0 mm
10:05 AM 51.4°F10.8°C 42.0°F5.6°C 70% - N16091.8 kmh N -- 30.09 in1019.0 mb 0.00 in0.0 mm 0.00 in/hr0.0 mm/hr 0.00 in0.0 mm
10:00 AM 50.7°F10.4°C 41.7°F5.4°C 70% - N16091.8 kmh N -- 30.09 in1019.0 mb 0.00 in0.0 mm 0.00 in/hr0.0 mm/hr 0.00 in0.0 mm
09:55 AM 50.5°F10.3°C 41.5°F5.3°C 71% - N16091.8 kmh N -- 30.09 in1019.0 mb 0.00 in0.0 mm 0.00 in/hr0.0 mm/hr 0.00 in0.0 mm
09:50 AM 50.1°F10.1°C 41.1°F5.1°C 71% - N16091.8 kmh N -- 30.10 in1019.3 mb 0.00 in0.0 mm 0.00 in/hr0.0 mm/hr 0.00 in0.0 mm
09:45 AM 49.6°F9.8°C 40.6°F4.8°C 71% - N16091.8 kmh N -- 30.09 in1019.0 mb 0.00 in0.0 mm 0.00 in/hr0.0 mm/hr 0.00 in0.0 mm
09:40 AM 49.4°F9.7°C 40.4°F4.7°C 71% - N16091.8 kmh N -- 30.09 in1019.0 mb 0.00 in0.0 mm 0.00 in/hr0.0 mm/hr 0.00 in0.0 mm
09:35 AM 49.2°F9.6°C 40.2°F4.6°C 71% - N16091.8 kmh N -- 30.10 in1019.3 mb 0.00 in0.0 mm 0.00 in/hr0.0 mm/hr 0.00 in0.0 mm
09:30 AM 48.9°F9.4°C 39.9°F4.4°C 71% - N16091.8 kmh N -- 30.10 in1019.3 mb 0.00 in0.0 mm 0.00 in/hr0.0 mm/hr 0.00 in0.0 mm
09:25 AM 48.7°F9.3°C 39.7°F4.3°C 71% - N16091.8 kmh N -- 30.10 in1019.3 mb 0.00 in0.0 mm 0.00 in/hr0.0 mm/hr 0.00 in0.0 mm
09:20 AM 48.3°F9.1°C 39.3°F4.1°C 71% - N16091.8 kmh N -- 30.10 in1019.3 mb 0.00 in0.0 mm 0.00 in/hr0.0 mm/hr 0.00 in0.0 mm
09:15 AM 48.2°F9.0°C 39.1°F3.9°C 71% - N16091.8 kmh N -- 30.10 in1019.3 mb 0.00 in0.0 mm 0.00 in/hr0.0 mm/hr 0.00 in0.0 mm
09:10 AM 48.0°F8.9°C 39.0°F3.9°C 71% - N16091.8 kmh N -- 30.09 in1019.0 mb 0.00 in0.0 mm 0.00 in/hr0.0 mm/hr 0.00 in0.0 mm
09:05 AM 47.8°F8.8°C 39.2°F4.0°C 71% - N16091.8 kmh N -- 30.09 in1019.0 mb 0.00 in0.0 mm 0.00 in/hr0.0 mm/hr 0.00 in0.0 mm
09:00 AM 47.8°F8.8°C 39.2°F4.0°C 72% - N16091.8 kmh N -- 30.09 in1019.0 mb 0.00 in0.0 mm 0.00 in/hr0.0 mm/hr 0.00 in0.0 mm
08:55 AM 47.4°F8.6°C 38.8°F3.8°C 72% - N16091.8 kmh N -- 30.09 in1019.0 mb 0.00 in0.0 mm 0.00 in/hr0.0 mm/hr 0.00 in0.0 mm
08:50 AM 47.4°F8.6°C 38.8°F3.8°C 72% - N16091.8 kmh N -- 30.09 in1019.0 mb 0.00 in0.0 mm 0.00 in/hr0.0 mm/hr 0.00 in0.0 mm
08:45 AM 47.1°F8.4°C 38.5°F3.6°C 72% - N16091.8 kmh N -- 30.09 in1019.0 mb 0.00 in0.0 mm 0.00 in/hr0.0 mm/hr 0.00 in0.0 mm
08:40 AM 47.1°F8.4°C 38.5°F3.6°C 72% - N16091.8 kmh N -- 30.09 in1019.0 mb 0.00 in0.0 mm 0.00 in/hr0.0 mm/hr 0.00 in0.0 mm
08:35 AM 46.9°F8.3°C 38.3°F3.5°C 72% - N16091.8 kmh N -- 30.09 in1019.0 mb 0.00 in0.0 mm 0.00 in/hr0.0 mm/hr 0.00 in0.0 mm
08:30 AM 46.9°F8.3°C 38.3°F3.5°C 72% - N16091.8 kmh N -- 30.09 in1019.0 mb 0.00 in0.0 mm 0.00 in/hr0.0 mm/hr 0.00 in0.0 mm
08:25 AM 46.9°F8.3°C 38.3°F3.5°C 72% - N16091.8 kmh N -- 30.09 in1019.0 mb 0.00 in0.0 mm 0.00 in/hr0.0 mm/hr 0.00 in0.0 mm
08:20 AM 46.7°F8.2°C 38.2°F3.4°C 72% - N16091.8 kmh N -- 30.09 in1019.0 mb 0.00 in0.0 mm 0.00 in/hr0.0 mm/hr 0.00 in0.0 mm
08:15 AM 46.5°F8.1°C 38.0°F3.3°C 72% - N16091.8 kmh N -- 30.09 in1019.0 mb 0.00 in0.0 mm 0.00 in/hr0.0 mm/hr 0.00 in0.0 mm
08:10 AM 46.4°F8.0°C 37.9°F3.3°C 72% - N16091.8 kmh N -- 30.09 in1019.0 mb 0.00 in0.0 mm 0.00 in/hr0.0 mm/hr 0.00 in0.0 mm
08:05 AM 46.4°F8.0°C 37.9°F3.3°C 72% - N16091.8 kmh N -- 30.08 in1018.6 mb 0.00 in0.0 mm 0.00 in/hr0.0 mm/hr 0.00 in0.0 mm
08:00 AM 46.2°F7.9°C 37.7°F3.2°C 72% - N16091.8 kmh N -- 30.09 in1019.0 mb 0.00 in0.0 mm 0.00 in/hr0.0 mm/hr 0.00 in0.0 mm
07:55 AM 46.0°F7.8°C 37.5°F3.1°C 72% - N16091.8 kmh N -- 30.09 in1019.0 mb 0.00 in0.0 mm 0.00 in/hr0.0 mm/hr 0.00 in0.0 mm
07:50 AM 46.0°F7.8°C 37.5°F3.1°C 72% - N16091.8 kmh N -- 30.08 in1018.6 mb 0.00 in0.0 mm 0.00 in/hr0.0 mm/hr 0.00 in0.0 mm
07:45 AM 46.0°F7.8°C 37.5°F3.1°C 72% - N16091.8 kmh N -- 30.09 in1019.0 mb 0.00 in0.0 mm 0.00 in/hr0.0 mm/hr 0.00 in0.0 mm
07:40 AM 46.2°F7.9°C 37.3°F2.9°C 72% - N16091.8 kmh N -- 30.09 in1019.0 mb 0.00 in0.0 mm 0.00 in/hr0.0 mm/hr 0.00 in0.0 mm
07:35 AM 46.2°F7.9°C 37.3°F2.9°C 72% - N16091.8 kmh N -- 30.09 in1019.0 mb 0.00 in0.0 mm 0.00 in/hr0.0 mm/hr 0.00 in0.0 mm
07:30 AM 46.2°F7.9°C 37.3°F2.9°C 71% - N16091.8 kmh N -- 30.09 in1019.0 mb 0.00 in0.0 mm 0.00 in/hr0.0 mm/hr 0.00 in0.0 mm
07:25 AM 46.2°F7.9°C 37.3°F2.9°C 71% - N16091.8 kmh N -- 30.09 in1019.0 mb 0.00 in0.0 mm 0.00 in/hr0.0 mm/hr 0.00 in0.0 mm
07:20 AM 46.2°F7.9°C 37.3°F2.9°C 71% - N16091.8 kmh N -- 30.09 in1019.0 mb 0.00 in0.0 mm 0.00 in/hr0.0 mm/hr 0.00 in0.0 mm
07:14 AM 46.0°F7.8°C 37.2°F2.9°C 71% - N16091.8 kmh N -- 30.09 in1019.0 mb 0.00 in0.0 mm 0.00 in/hr0.0 mm/hr 0.00 in0.0 mm
07:09 AM 46.0°F7.8°C 37.2°F2.9°C 71% - N16091.8 kmh N -- 30.09 in1019.0 mb 0.00 in0.0 mm 0.00 in/hr0.0 mm/hr 0.00 in0.0 mm
07:04 AM 46.0°F7.8°C 37.2°F2.9°C 71% - N16091.8 kmh N -- 30.09 in1019.0 mb 0.00 in0.0 mm 0.00 in/hr0.0 mm/hr 0.00 in0.0 mm
06:59 AM 46.0°F7.8°C 37.2°F2.9°C 71% - N16091.8 kmh N -- 30.09 in1019.0 mb 0.00 in0.0 mm 0.00 in/hr0.0 mm/hr 0.00 in0.0 mm
06:55 AM 46.0°F7.8°C 37.2°F2.9°C 71% - N16091.8 kmh N -- 30.09 in1019.0 mb 0.00 in0.0 mm 0.00 in/hr0.0 mm/hr 0.00 in0.0 mm
06:50 AM 46.0°F7.8°C 37.5°F3.1°C 72% - N16091.8 kmh N -- 30.09 in1019.0 mb 0.00 in0.0 mm 0.00 in/hr0.0 mm/hr 0.00 in0.0 mm
06:44 AM 46.0°F7.8°C 37.5°F3.1°C 72% - N16091.8 kmh N -- 30.09 in1019.0 mb 0.00 in0.0 mm 0.00 in/hr0.0 mm/hr 0.00 in0.0 mm
06:39 AM 46.2°F7.9°C 37.7°F3.2°C 72% - N16091.8 kmh N -- 30.09 in1019.0 mb 0.00 in0.0 mm 0.00 in/hr0.0 mm/hr 0.00 in0.0 mm
06:34 AM 46.2°F7.9°C 37.7°F3.2°C 72% - N16091.8 kmh N -- 30.09 in1019.0 mb 0.00 in0.0 mm 0.00 in/hr0.0 mm/hr 0.00 in0.0 mm
06:29 AM 46.2°F7.9°C 37.7°F3.2°C 72% - N16091.8 kmh N -- 30.09 in1019.0 mb 0.00 in0.0 mm 0.00 in/hr0.0 mm/hr 0.00 in0.0 mm
06:24 AM 46.4°F8.0°C 38.2°F3.4°C 73% - N16091.8 kmh N -- 30.09 in1019.0 mb 0.00 in0.0 mm 0.00 in/hr0.0 mm/hr 0.00 in0.0 mm
06:19 AM 46.2°F7.9°C 37.7°F3.2°C 73% - N16091.8 kmh N -- 30.09 in1019.0 mb 0.00 in0.0 mm 0.00 in/hr0.0 mm/hr 0.00 in0.0 mm
06:14 AM 46.2°F7.9°C 37.7°F3.2°C 73% - N16091.8 kmh N -- 30.09 in1019.0 mb 0.00 in0.0 mm 0.00 in/hr0.0 mm/hr 0.00 in0.0 mm
06:09 AM 46.2°F7.9°C 37.7°F3.2°C 73% - N16091.8 kmh N -- 30.09 in1019.0 mb 0.00 in0.0 mm 0.00 in/hr0.0 mm/hr 0.00 in0.0 mm
06:04 AM 46.2°F7.9°C 37.7°F3.2°C 72% - N16091.8 kmh N -- 30.09 in1019.0 mb 0.00 in0.0 mm 0.00 in/hr0.0 mm/hr 0.00 in0.0 mm
05:59 AM 46.4°F8.0°C 37.5°F3.1°C 72% - N16091.8 kmh N -- 30.09 in1019.0 mb 0.00 in0.0 mm 0.00 in/hr0.0 mm/hr 0.00 in0.0 mm
05:54 AM 46.4°F8.0°C 37.5°F3.1°C 71% - N16091.8 kmh N -- 30.09 in1019.0 mb 0.00 in0.0 mm 0.00 in/hr0.0 mm/hr 0.00 in0.0 mm
05:49 AM 46.5°F8.1°C 38.0°F3.3°C 72% - N16091.8 kmh N -- 30.09 in1019.0 mb 0.00 in0.0 mm 0.00 in/hr0.0 mm/hr 0.00 in0.0 mm
05:44 AM 46.4°F8.0°C 37.5°F3.1°C 71% - N16091.8 kmh N -- 30.09 in1019.0 mb 0.00 in0.0 mm 0.00 in/hr0.0 mm/hr 0.00 in0.0 mm
05:39 AM 46.2°F7.9°C 37.3°F2.9°C 71% - N16091.8 kmh N -- 30.09 in1019.0 mb 0.00 in0.0 mm 0.00 in/hr0.0 mm/hr 0.00 in0.0 mm
05:34 AM 46.2°F7.9°C 37.3°F2.9°C 71% - N16091.8 kmh N -- 30.09 in1019.0 mb 0.00 in0.0 mm 0.00 in/hr0.0 mm/hr 0.00 in0.0 mm
05:29 AM 46.4°F8.0°C 37.9°F3.3°C 71% - N16091.8 kmh N -- 30.09 in1019.0 mb 0.00 in0.0 mm 0.00 in/hr0.0 mm/hr 0.00 in0.0 mm
05:24 AM 46.4°F8.0°C 37.9°F3.3°C 72% - N16091.8 kmh N -- 30.09 in1019.0 mb 0.00 in0.0 mm 0.00 in/hr0.0 mm/hr 0.00 in0.0 mm
05:19 AM 46.4°F8.0°C 37.9°F3.3°C 72% - N16091.8 kmh N -- 30.09 in1019.0 mb 0.00 in0.0 mm 0.00 in/hr0.0 mm/hr 0.00 in0.0 mm
05:14 AM 46.5°F8.1°C 38.0°F3.3°C 72% - N16091.8 kmh N -- 30.09 in1019.0 mb 0.00 in0.0 mm 0.00 in/hr0.0 mm/hr 0.00 in0.0 mm
05:09 AM 46.5°F8.1°C 38.0°F3.3°C 72% - N16091.8 kmh N -- 30.09 in1019.0 mb 0.00 in0.0 mm 0.00 in/hr0.0 mm/hr 0.00 in0.0 mm
05:04 AM 46.7°F8.2°C 38.2°F3.4°C 72% - N16091.8 kmh N -- 30.09 in1019.0 mb 0.00 in0.0 mm 0.00 in/hr0.0 mm/hr 0.00 in0.0 mm
04:59 AM 46.9°F8.3°C 38.3°F3.5°C 72% - N16091.8 kmh N -- 30.09 in1019.0 mb 0.00 in0.0 mm 0.00 in/hr0.0 mm/hr 0.00 in0.0 mm
04:54 AM 46.9°F8.3°C 38.3°F3.5°C 72% - N16091.8 kmh N -- 30.09 in1019.0 mb 0.00 in0.0 mm 0.00 in/hr0.0 mm/hr 0.00 in0.0 mm
04:49 AM 46.9°F8.3°C 38.3°F3.5°C 73% - N16091.8 kmh N -- 30.09 in1019.0 mb 0.00 in0.0 mm 0.00 in/hr0.0 mm/hr 0.00 in0.0 mm
04:44 AM 46.9°F8.3°C 38.3°F3.5°C 73% - N16091.8 kmh N -- 30.09 in1019.0 mb 0.00 in0.0 mm 0.00 in/hr0.0 mm/hr 0.00 in0.0 mm
04:39 AM 46.9°F8.3°C 38.3°F3.5°C 73% - N16091.8 kmh N -- 30.09 in1019.0 mb 0.00 in0.0 mm 0.00 in/hr0.0 mm/hr 0.00 in0.0 mm
04:34 AM 46.9°F8.3°C 38.3°F3.5°C 72% - N16091.8 kmh N -- 30.09 in1019.0 mb 0.00 in0.0 mm 0.00 in/hr0.0 mm/hr 0.00 in0.0 mm
04:29 AM 46.7°F8.2°C 38.2°F3.4°C 72% - N16091.8 kmh N -- 30.09 in1019.0 mb 0.00 in0.0 mm 0.00 in/hr0.0 mm/hr 0.00 in0.0 mm
04:24 AM 46.9°F8.3°C 38.3°F3.5°C 72% - N16091.8 kmh N -- 30.09 in1019.0 mb 0.00 in0.0 mm 0.00 in/hr0.0 mm/hr 0.00 in0.0 mm
04:19 AM 46.9°F8.3°C 38.3°F3.5°C 72% - N16091.8 kmh N -- 30.09 in1019.0 mb 0.00 in0.0 mm 0.00 in/hr0.0 mm/hr 0.00 in0.0 mm
04:14 AM 46.9°F8.3°C 38.3°F3.5°C 72% - N16091.8 kmh N -- 30.09 in1019.0 mb 0.00 in0.0 mm 0.00 in/hr0.0 mm/hr 0.00 in0.0 mm
04:09 AM 47.1°F8.4°C 38.5°F3.6°C 72% - N16091.8 kmh N -- 30.09 in1019.0 mb 0.00 in0.0 mm 0.00 in/hr0.0 mm/hr 0.00 in0.0 mm
04:04 AM 47.3°F8.5°C 38.7°F3.7°C 72% - N16091.8 kmh N -- 30.09 in1019.0 mb 0.00 in0.0 mm 0.00 in/hr0.0 mm/hr 0.00 in0.0 mm
03:59 AM 47.3°F8.5°C 38.7°F3.7°C 73% - N16091.8 kmh N -- 30.10 in1019.3 mb 0.00 in0.0 mm 0.00 in/hr0.0 mm/hr 0.00 in0.0 mm
03:54 AM 47.3°F8.5°C 38.7°F3.7°C 73% - N16091.8 kmh N -- 30.10 in1019.3 mb 0.00 in0.0 mm 0.00 in/hr0.0 mm/hr 0.00 in0.0 mm
03:49 AM 47.3°F8.5°C 38.7°F3.7°C 72% - N16091.8 kmh N -- 30.10 in1019.3 mb 0.00 in0.0 mm 0.00 in/hr0.0 mm/hr 0.00 in0.0 mm
03:44 AM 47.3°F8.5°C 38.7°F3.7°C 72% - N16091.8 kmh N -- 30.10 in1019.3 mb 0.00 in0.0 mm 0.00 in/hr0.0 mm/hr 0.00 in0.0 mm
03:39 AM 47.3°F8.5°C 38.7°F3.7°C 72% - N16091.8 kmh N -- 30.10 in1019.3 mb 0.00 in0.0 mm 0.00 in/hr0.0 mm/hr 0.00 in0.0 mm
03:34 AM 47.3°F8.5°C 38.7°F3.7°C 72% - N16091.8 kmh N -- 30.10 in1019.3 mb 0.00 in0.0 mm 0.00 in/hr0.0 mm/hr 0.00 in0.0 mm
03:29 AM 47.4°F8.6°C 38.8°F3.8°C 72% - N16091.8 kmh N -- 30.10 in1019.3 mb 0.00 in0.0 mm 0.00 in/hr0.0 mm/hr 0.00 in0.0 mm
03:24 AM 47.4°F8.6°C 38.8°F3.8°C 72% - N16091.8 kmh N -- 30.11 in1019.6 mb 0.00 in0.0 mm 0.00 in/hr0.0 mm/hr 0.00 in0.0 mm
03:18 AM 47.4°F8.6°C 38.8°F3.8°C 72% - N16091.8 kmh N -- 30.11 in1019.6 mb 0.00 in0.0 mm 0.00 in/hr0.0 mm/hr 0.00 in0.0 mm
03:13 AM 47.8°F8.8°C 39.2°F4.0°C 72% - N16091.8 kmh N -- 30.11 in1019.6 mb 0.00 in0.0 mm 0.00 in/hr0.0 mm/hr 0.00 in0.0 mm
03:08 AM 47.8°F8.8°C 39.2°F4.0°C 72% - N16091.8 kmh N -- 30.11 in1019.6 mb 0.00 in0.0 mm 0.00 in/hr0.0 mm/hr 0.00 in0.0 mm
03:04 AM 47.8°F8.8°C 39.2°F4.0°C 72% - N16091.8 kmh N -- 30.11 in1019.6 mb 0.00 in0.0 mm 0.00 in/hr0.0 mm/hr 0.00 in0.0 mm
02:58 AM 47.8°F8.8°C 39.2°F4.0°C 72% - N16091.8 kmh N -- 30.11 in1019.6 mb 0.00 in0.0 mm 0.00 in/hr0.0 mm/hr 0.00 in0.0 mm
02:53 AM 47.8°F8.8°C 39.2°F4.0°C 72% - N16091.8 kmh N -- 30.11 in1019.6 mb 0.00 in0.0 mm 0.00 in/hr0.0 mm/hr 0.00 in0.0 mm
02:48 AM 48.0°F8.9°C 39.0°F3.9°C 72% - N16091.8 kmh N -- 30.12 in1020.0 mb 0.00 in0.0 mm 0.00 in/hr0.0 mm/hr 0.00 in0.0 mm
02:43 AM 48.0°F8.9°C 39.0°F3.9°C 71% - N16091.8 kmh N -- 30.12 in1020.0 mb 0.00 in0.0 mm 0.00 in/hr0.0 mm/hr 0.00 in0.0 mm
02:38 AM 48.0°F8.9°C 39.0°F3.9°C 71% - N16091.8 kmh N -- 30.12 in1020.0 mb 0.00 in0.0 mm 0.00 in/hr0.0 mm/hr 0.00 in0.0 mm
02:33 AM 48.0°F8.9°C 39.0°F3.9°C 71% - N16091.8 kmh N -- 30.12 in1020.0 mb 0.00 in0.0 mm 0.00 in/hr0.0 mm/hr 0.00 in0.0 mm
02:28 AM 48.3°F9.1°C 39.3°F4.1°C 71% - N16091.8 kmh N -- 30.12 in1020.0 mb 0.00 in0.0 mm 0.00 in/hr0.0 mm/hr 0.00 in0.0 mm
02:23 AM 48.3°F9.1°C 39.3°F4.1°C 71% - N16091.8 kmh N -- 30.12 in1020.0 mb 0.00 in0.0 mm 0.00 in/hr0.0 mm/hr 0.00 in0.0 mm
02:18 AM 48.3°F9.1°C 39.3°F4.1°C 71% - N16091.8 kmh N -- 30.12 in1020.0 mb 0.00 in0.0 mm 0.00 in/hr0.0 mm/hr 0.00 in0.0 mm
02:13 AM 48.5°F9.2°C 39.5°F4.2°C 71% - N16091.8 kmh N -- 30.12 in1020.0 mb 0.00 in0.0 mm 0.00 in/hr0.0 mm/hr 0.00 in0.0 mm
02:08 AM 48.7°F9.3°C 39.7°F4.3°C 71% - N16091.8 kmh N -- 30.12 in1020.0 mb 0.00 in0.0 mm 0.00 in/hr0.0 mm/hr 0.00 in0.0 mm
02:03 AM 48.9°F9.4°C 39.9°F4.4°C 71% - N16091.8 kmh N -- 30.12 in1020.0 mb 0.00 in0.0 mm 0.00 in/hr0.0 mm/hr 0.00 in0.0 mm
01:58 AM 48.9°F9.4°C 39.9°F4.4°C 71% - N16091.8 kmh N -- 30.12 in1020.0 mb 0.00 in0.0 mm 0.00 in/hr0.0 mm/hr 0.00 in0.0 mm
01:53 AM 48.9°F9.4°C 39.9°F4.4°C 71% - N16091.8 kmh N -- 30.12 in1020.0 mb 0.00 in0.0 mm 0.00 in/hr0.0 mm/hr 0.00 in0.0 mm
01:48 AM 49.1°F9.5°C 40.0°F4.4°C 71% - N16091.8 kmh N -- 30.12 in1020.0 mb 0.00 in0.0 mm 0.00 in/hr0.0 mm/hr 0.00 in0.0 mm
01:43 AM 49.1°F9.5°C 40.0°F4.4°C 71% - N16091.8 kmh N -- 30.12 in1020.0 mb 0.00 in0.0 mm 0.00 in/hr0.0 mm/hr 0.00 in0.0 mm
01:38 AM 49.1°F9.5°C 40.0°F4.4°C 71% - N16091.8 kmh N -- 30.12 in1020.0 mb 0.00 in0.0 mm 0.00 in/hr0.0 mm/hr 0.00 in0.0 mm
01:33 AM 49.1°F9.5°C 40.0°F4.4°C 71% - N16091.8 kmh N -- 30.12 in1020.0 mb 0.00 in0.0 mm 0.00 in/hr0.0 mm/hr 0.00 in0.0 mm
01:28 AM 49.1°F9.5°C 40.0°F4.4°C 71% - N16091.8 kmh N -- 30.12 in1020.0 mb 0.00 in0.0 mm 0.00 in/hr0.0 mm/hr 0.00 in0.0 mm
01:23 AM 49.2°F9.6°C 40.2°F4.6°C 71% - N16091.8 kmh N -- 30.12 in1020.0 mb 0.00 in0.0 mm 0.00 in/hr0.0 mm/hr 0.00 in0.0 mm
01:18 AM 49.6°F9.8°C 40.6°F4.8°C 71% - N16091.8 kmh N -- 30.12 in1020.0 mb 0.00 in0.0 mm 0.00 in/hr0.0 mm/hr 0.00 in0.0 mm
01:13 AM 49.6°F9.8°C 40.6°F4.8°C 71% - N16091.8 kmh N -- 30.12 in1020.0 mb 0.00 in0.0 mm 0.00 in/hr0.0 mm/hr 0.00 in0.0 mm
01:08 AM 49.6°F9.8°C 40.6°F4.8°C 71% - N16091.8 kmh N -- 30.12 in1020.0 mb 0.00 in0.0 mm 0.00 in/hr0.0 mm/hr 0.00 in0.0 mm
01:03 AM 49.6°F9.8°C 40.6°F4.8°C 71% - N16091.8 kmh N -- 30.12 in1020.0 mb 0.00 in0.0 mm 0.00 in/hr0.0 mm/hr 0.00 in0.0 mm
12:58 AM 49.6°F9.8°C 40.6°F4.8°C 71% - N16091.8 kmh N -- 30.12 in1020.0 mb 0.00 in0.0 mm 0.00 in/hr0.0 mm/hr 0.00 in0.0 mm
12:53 AM 49.8°F9.9°C 40.8°F4.9°C 71% - N16091.8 kmh N -- 30.12 in1020.0 mb 0.00 in0.0 mm 0.00 in/hr0.0 mm/hr 0.00 in0.0 mm
12:48 AM 49.8°F9.9°C 40.8°F4.9°C 71% - N16091.8 kmh N -- 30.13 in1020.3 mb 0.00 in0.0 mm 0.00 in/hr0.0 mm/hr 0.00 in0.0 mm
12:43 AM 50.1°F10.1°C 41.1°F5.1°C 71% - N16091.8 kmh N -- 30.12 in1020.0 mb 0.00 in0.0 mm 0.00 in/hr0.0 mm/hr 0.00 in0.0 mm
12:38 AM 50.3°F10.2°C 41.6°F5.3°C 71% - N16091.8 kmh N -- 30.12 in1020.0 mb 0.00 in0.0 mm 0.00 in/hr0.0 mm/hr 0.00 in0.0 mm
12:33 AM 50.5°F10.3°C 41.8°F5.4°C 72% - N16091.8 kmh N -- 30.13 in1020.3 mb 0.00 in0.0 mm 0.00 in/hr0.0 mm/hr 0.00 in0.0 mm
12:28 AM 50.5°F10.3°C 41.8°F5.4°C 72% - N16091.8 kmh N -- 30.12 in1020.0 mb 0.00 in0.0 mm 0.00 in/hr0.0 mm/hr 0.00 in0.0 mm
12:23 AM 50.7°F10.4°C 42.0°F5.6°C 72% - N16091.8 kmh N -- 30.13 in1020.3 mb 0.00 in0.0 mm 0.00 in/hr0.0 mm/hr 0.00 in0.0 mm
12:18 AM 50.7°F10.4°C 42.0°F5.6°C 72% - N16091.8 kmh N -- 30.13 in1020.3 mb 0.00 in0.0 mm 0.00 in/hr0.0 mm/hr 0.00 in0.0 mm
12:13 AM 50.5°F10.3°C 41.5°F5.3°C 72% - N16091.8 kmh N -- 30.13 in1020.3 mb 0.00 in0.0 mm 0.00 in/hr0.0 mm/hr 0.00 in0.0 mm
12:08 AM 50.5°F10.3°C 41.5°F5.3°C 72% - N16091.8 kmh N -- 30.13 in1020.3 mb 0.00 in0.0 mm 0.00 in/hr0.0 mm/hr 0.00 in0.0 mm
12:03 AM 50.5°F10.3°C 41.5°F5.3°C 71% - N16091.8 kmh N -- 30.13 in1020.3 mb 0.00 in0.0 mm 0.00 in/hr0.0 mm/hr 0.00 in0.0 mm